sensor_id;sensor_type;location;lat;lon;timestamp;temperature;humidity
18998;DHT22;9632;51.018;4.284;2022-12-18T00:01:01;-1.70;99.90
18998;DHT22;9632;51.018;4.284;2022-12-18T00:03:34;-1.60;99.90
18998;DHT22;9632;51.018;4.284;2022-12-18T00:06:00;-1.60;99.90
18998;DHT22;9632;51.018;4.284;2022-12-18T00:08:26;-1.60;99.90
18998;DHT22;9632;51.018;4.284;2022-12-18T00:10:52;-1.60;99.90
18998;DHT22;9632;51.018;4.284;2022-12-18T00:13:18;-1.60;99.90
18998;DHT22;9632;51.018;4.284;2022-12-18T00:15:43;-1.60;99.90
18998;DHT22;9632;51.018;4.284;2022-12-18T00:18:09;-1.60;99.90
18998;DHT22;9632;51.018;4.284;2022-12-18T00:20:39;-1.60;99.90
18998;DHT22;9632;51.018;4.284;2022-12-18T00:23:06;-1.60;99.90
18998;DHT22;9632;51.018;4.284;2022-12-18T00:25:35;-1.60;99.90
18998;DHT22;9632;51.018;4.284;2022-12-18T00:28:02;-1.70;99.90
18998;DHT22;9632;51.018;4.284;2022-12-18T00:30:28;-1.70;99.90
18998;DHT22;9632;51.018;4.284;2022-12-18T00:32:54;-1.70;99.90
18998;DHT22;9632;51.018;4.284;2022-12-18T00:35:20;-1.70;99.90
18998;DHT22;9632;51.018;4.284;2022-12-18T00:37:46;-1.80;99.90
18998;DHT22;9632;51.018;4.284;2022-12-18T00:40:12;-1.80;99.90
18998;DHT22;9632;51.018;4.284;2022-12-18T00:42:37;-1.80;99.90
18998;DHT22;9632;51.018;4.284;2022-12-18T00:45:29;-1.80;99.90
18998;DHT22;9632;51.018;4.284;2022-12-18T00:47:56;-1.80;99.90
18998;DHT22;9632;51.018;4.284;2022-12-18T00:50:23;-1.80;99.90
18998;DHT22;9632;51.018;4.284;2022-12-18T00:52:49;-1.80;99.90
18998;DHT22;9632;51.018;4.284;2022-12-18T00:55:16;-1.80;99.90
18998;DHT22;9632;51.018;4.284;2022-12-18T00:57:42;-1.90;99.90
18998;DHT22;9632;51.018;4.284;2022-12-18T01:00:10;-1.90;99.90
18998;DHT22;9632;51.018;4.284;2022-12-18T01:02:36;-1.90;99.90
18998;DHT22;9632;51.018;4.284;2022-12-18T01:05:02;-1.90;99.90
18998;DHT22;9632;51.018;4.284;2022-12-18T01:07:28;-1.90;99.90
18998;DHT22;9632;51.018;4.284;2022-12-18T01:09:53;-2.00;99.90
18998;DHT22;9632;51.018;4.284;2022-12-18T01:12:19;-2.00;99.90
18998;DHT22;9632;51.018;4.284;2022-12-18T01:14:45;-2.10;99.90
18998;DHT22;9632;51.018;4.284;2022-12-18T01:17:10;-2.10;99.90
18998;DHT22;9632;51.018;4.284;2022-12-18T01:19:36;-2.10;99.90
18998;DHT22;9632;51.018;4.284;2022-12-18T01:22:01;-2.10;99.90
18998;DHT22;9632;51.018;4.284;2022-12-18T01:24:27;-2.10;99.90
18998;DHT22;9632;51.018;4.284;2022-12-18T01:26:53;-2.10;99.90
18998;DHT22;9632;51.018;4.284;2022-12-18T01:29:18;-2.20;99.90
18998;DHT22;9632;51.018;4.284;2022-12-18T01:31:44;-2.20;99.90
18998;DHT22;9632;51.018;4.284;2022-12-18T01:34:10;-2.20;99.90
18998;DHT22;9632;51.018;4.284;2022-12-18T01:36:39;-2.20;99.90
18998;DHT22;9632;51.018;4.284;2022-12-18T01:39:07;-2.30;99.90
18998;DHT22;9632;51.018;4.284;2022-12-18T01:41:34;-2.30;99.90
18998;DHT22;9632;51.018;4.284;2022-12-18T01:49:51;-2.30;99.90
18998;DHT22;9632;51.018;4.284;2022-12-18T01:52:17;-2.40;99.90
18998;DHT22;9632;51.018;4.284;2022-12-18T01:54:44;-2.40;99.90
18998;DHT22;9632;51.018;4.284;2022-12-18T01:57:10;-2.40;99.90
18998;DHT22;9632;51.018;4.284;2022-12-18T01:59:36;-2.50;99.90
18998;DHT22;9632;51.018;4.284;2022-12-18T02:02:03;-2.50;99.90
18998;DHT22;9632;51.018;4.284;2022-12-18T02:04:28;-2.50;99.90
18998;DHT22;9632;51.018;4.284;2022-12-18T02:09:50;-2.50;99.90
18998;DHT22;9632;51.018;4.284;2022-12-18T02:12:24;-2.50;99.90
18998;DHT22;9632;51.018;4.284;2022-12-18T02:15:02;-2.60;99.90
18998;DHT22;9632;51.018;4.284;2022-12-18T02:20:25;-2.60;99.90
18998;DHT22;9632;51.018;4.284;2022-12-18T02:25:54;-2.60;99.90
18998;DHT22;9632;51.018;4.284;2022-12-18T02:28:29;-2.70;99.90
18998;DHT22;9632;51.018;4.284;2022-12-18T02:30:59;-2.70;99.90
18998;DHT22;9632;51.018;4.284;2022-12-18T02:33:27;-2.70;99.90
18998;DHT22;9632;51.018;4.284;2022-12-18T02:35:54;-2.70;99.90
18998;DHT22;9632;51.018;4.284;2022-12-18T02:38:21;-2.70;99.90
18998;DHT22;9632;51.018;4.284;2022-12-18T02:40:48;-2.70;99.90
18998;DHT22;9632;51.018;4.284;2022-12-18T02:43:15;-2.70;99.90
18998;DHT22;9632;51.018;4.284;2022-12-18T02:45:56;-2.80;99.90
18998;DHT22;9632;51.018;4.284;2022-12-18T02:48:29;-2.80;99.90
18998;DHT22;9632;51.018;4.284;2022-12-18T02:53:40;-2.70;99.90
18998;DHT22;9632;51.018;4.284;2022-12-18T02:56:21;-2.80;99.90
18998;DHT22;9632;51.018;4.284;2022-12-18T02:58:58;-2.80;99.90
18998;DHT22;9632;51.018;4.284;2022-12-18T03:04:09;-2.90;99.90
18998;DHT22;9632;51.018;4.284;2022-12-18T03:06:41;-2.90;99.90
18998;DHT22;9632;51.018;4.284;2022-12-18T03:09:16;-3.00;99.90
18998;DHT22;9632;51.018;4.284;2022-12-18T03:11:48;-3.00;99.90
18998;DHT22;9632;51.018;4.284;2022-12-18T03:14:36;-2.90;99.90
18998;DHT22;9632;51.018;4.284;2022-12-18T03:17:05;-3.00;99.90
18998;DHT22;9632;51.018;4.284;2022-12-18T03:19:33;-3.00;99.90
18998;DHT22;9632;51.018;4.284;2022-12-18T03:22:02;-3.00;99.90
18998;DHT22;9632;51.018;4.284;2022-12-18T03:24:31;-3.00;99.90
18998;DHT22;9632;51.018;4.284;2022-12-18T03:27:01;-3.00;99.90
18998;DHT22;9632;51.018;4.284;2022-12-18T03:32:24;-2.90;99.90
18998;DHT22;9632;51.018;4.284;2022-12-18T03:34:52;-3.00;99.90
18998;DHT22;9632;51.018;4.284;2022-12-18T03:37:19;-3.00;99.90
18998;DHT22;9632;51.018;4.284;2022-12-18T03:39:44;-3.00;99.90
18998;DHT22;9632;51.018;4.284;2022-12-18T03:42:31;-3.10;99.90
18998;DHT22;9632;51.018;4.284;2022-12-18T03:47:53;-3.20;99.90
18998;DHT22;9632;51.018;4.284;2022-12-18T03:50:26;-3.20;99.90
18998;DHT22;9632;51.018;4.284;2022-12-18T03:52:59;-3.30;99.90
18998;DHT22;9632;51.018;4.284;2022-12-18T03:55:28;-3.30;99.90
18998;DHT22;9632;51.018;4.284;2022-12-18T03:57:57;-3.30;99.90
18998;DHT22;9632;51.018;4.284;2022-12-18T04:00:23;-3.30;99.90
18998;DHT22;9632;51.018;4.284;2022-12-18T04:02:54;-3.30;99.90
18998;DHT22;9632;51.018;4.284;2022-12-18T04:05:21;-3.30;99.90
18998;DHT22;9632;51.018;4.284;2022-12-18T04:07:49;-3.30;99.90
18998;DHT22;9632;51.018;4.284;2022-12-18T04:10:17;-3.20;99.90
18998;DHT22;9632;51.018;4.284;2022-12-18T04:12:43;-3.20;99.90
18998;DHT22;9632;51.018;4.284;2022-12-18T04:15:09;-3.20;99.90
18998;DHT22;9632;51.018;4.284;2022-12-18T04:17:35;-3.20;99.90
18998;DHT22;9632;51.018;4.284;2022-12-18T04:20:01;-3.20;99.90
18998;DHT22;9632;51.018;4.284;2022-12-18T04:22:26;-3.20;99.90
18998;DHT22;9632;51.018;4.284;2022-12-18T04:24:52;-3.20;99.90
18998;DHT22;9632;51.018;4.284;2022-12-18T04:27:18;-3.20;99.90
18998;DHT22;9632;51.018;4.284;2022-12-18T04:29:43;-3.20;99.90
18998;DHT22;9632;51.018;4.284;2022-12-18T04:32:09;-3.20;99.90
18998;DHT22;9632;51.018;4.284;2022-12-18T04:34:34;-3.20;99.90
18998;DHT22;9632;51.018;4.284;2022-12-18T04:37:00;-3.20;99.90
18998;DHT22;9632;51.018;4.284;2022-12-18T04:39:26;-3.20;99.90
18998;DHT22;9632;51.018;4.284;2022-12-18T04:41:52;-3.20;99.90
18998;DHT22;9632;51.018;4.284;2022-12-18T04:44:17;-3.20;99.90
18998;DHT22;9632;51.018;4.284;2022-12-18T04:46:43;-3.30;99.90
18998;DHT22;9632;51.018;4.284;2022-12-18T04:49:09;-3.30;99.90
18998;DHT22;9632;51.018;4.284;2022-12-18T04:51:36;-3.30;99.90
18998;DHT22;9632;51.018;4.284;2022-12-18T04:54:02;-3.30;99.90
18998;DHT22;9632;51.018;4.284;2022-12-18T04:56:28;-3.40;99.90
18998;DHT22;9632;51.018;4.284;2022-12-18T04:58:53;-3.40;99.90
18998;DHT22;9632;51.018;4.284;2022-12-18T05:01:19;-3.40;99.90
18998;DHT22;9632;51.018;4.284;2022-12-18T05:03:45;-3.50;99.90
18998;DHT22;9632;51.018;4.284;2022-12-18T05:06:10;-3.50;99.90
18998;DHT22;9632;51.018;4.284;2022-12-18T05:08:36;-3.50;99.90
18998;DHT22;9632;51.018;4.284;2022-12-18T05:11:08;-3.50;99.90
18998;DHT22;9632;51.018;4.284;2022-12-18T05:13:35;-3.50;99.90
18998;DHT22;9632;51.018;4.284;2022-12-18T05:16:01;-3.50;99.90
18998;DHT22;9632;51.018;4.284;2022-12-18T05:18:27;-3.50;99.90
18998;DHT22;9632;51.018;4.284;2022-12-18T05:20:53;-3.60;99.90
18998;DHT22;9632;51.018;4.284;2022-12-18T05:23:20;-3.60;99.90
18998;DHT22;9632;51.018;4.284;2022-12-18T05:25:54;-3.60;99.90
18998;DHT22;9632;51.018;4.284;2022-12-18T05:28:20;-3.70;99.90
18998;DHT22;9632;51.018;4.284;2022-12-18T05:30:55;-3.70;99.90
18998;DHT22;9632;51.018;4.284;2022-12-18T05:33:22;-3.70;99.90
18998;DHT22;9632;51.018;4.284;2022-12-18T05:35:52;-3.70;99.90
18998;DHT22;9632;51.018;4.284;2022-12-18T05:38:19;-3.70;99.90
18998;DHT22;9632;51.018;4.284;2022-12-18T05:40:45;-3.70;99.90
18998;DHT22;9632;51.018;4.284;2022-12-18T05:43:10;-3.70;99.90
18998;DHT22;9632;51.018;4.284;2022-12-18T05:45:37;-3.70;99.90
18998;DHT22;9632;51.018;4.284;2022-12-18T05:48:04;-3.70;99.90
18998;DHT22;9632;51.018;4.284;2022-12-18T05:50:29;-3.70;99.90
18998;DHT22;9632;51.018;4.284;2022-12-18T05:52:55;-3.70;99.90
18998;DHT22;9632;51.018;4.284;2022-12-18T05:55:20;-3.70;99.90
18998;DHT22;9632;51.018;4.284;2022-12-18T05:57:46;-3.70;99.90
18998;DHT22;9632;51.018;4.284;2022-12-18T06:00:12;-3.70;99.90
18998;DHT22;9632;51.018;4.284;2022-12-18T06:02:38;-3.70;99.90
18998;DHT22;9632;51.018;4.284;2022-12-18T06:05:04;-3.70;99.90
18998;DHT22;9632;51.018;4.284;2022-12-18T06:07:30;-3.70;99.90
18998;DHT22;9632;51.018;4.284;2022-12-18T06:09:55;-3.70;99.90
18998;DHT22;9632;51.018;4.284;2022-12-18T06:12:21;-3.70;99.90
18998;DHT22;9632;51.018;4.284;2022-12-18T06:14:46;-3.70;99.90
18998;DHT22;9632;51.018;4.284;2022-12-18T06:17:12;-3.80;99.90
18998;DHT22;9632;51.018;4.284;2022-12-18T06:19:38;-3.80;99.90
18998;DHT22;9632;51.018;4.284;2022-12-18T06:22:03;-3.80;99.90
18998;DHT22;9632;51.018;4.284;2022-12-18T06:24:29;-3.80;99.90
18998;DHT22;9632;51.018;4.284;2022-12-18T06:26:55;-3.80;99.90
18998;DHT22;9632;51.018;4.284;2022-12-18T06:29:21;-3.80;99.90
18998;DHT22;9632;51.018;4.284;2022-12-18T06:31:47;-3.80;99.90
18998;DHT22;9632;51.018;4.284;2022-12-18T06:34:12;-3.80;99.90
18998;DHT22;9632;51.018;4.284;2022-12-18T06:36:38;-3.90;99.90
18998;DHT22;9632;51.018;4.284;2022-12-18T06:39:03;-3.80;99.90
18998;DHT22;9632;51.018;4.284;2022-12-18T06:41:29;-3.90;99.90
18998;DHT22;9632;51.018;4.284;2022-12-18T06:43:55;-3.90;99.90
18998;DHT22;9632;51.018;4.284;2022-12-18T06:46:20;-3.90;99.90
18998;DHT22;9632;51.018;4.284;2022-12-18T06:48:47;-3.90;99.90
18998;DHT22;9632;51.018;4.284;2022-12-18T06:51:19;-3.90;99.90
18998;DHT22;9632;51.018;4.284;2022-12-18T06:53:45;-3.90;99.90
18998;DHT22;9632;51.018;4.284;2022-12-18T06:56:10;-3.90;99.90
18998;DHT22;9632;51.018;4.284;2022-12-18T06:58:37;-4.00;99.90
18998;DHT22;9632;51.018;4.284;2022-12-18T07:01:04;-4.00;99.90
18998;DHT22;9632;51.018;4.284;2022-12-18T07:03:30;-4.10;99.90
18998;DHT22;9632;51.018;4.284;2022-12-18T07:05:56;-4.10;99.90
18998;DHT22;9632;51.018;4.284;2022-12-18T07:08:22;-4.10;99.90
18998;DHT22;9632;51.018;4.284;2022-12-18T07:10:48;-4.00;99.90
18998;DHT22;9632;51.018;4.284;2022-12-18T07:13:15;-4.00;99.90
18998;DHT22;9632;51.018;4.284;2022-12-18T07:15:40;-4.00;99.90
18998;DHT22;9632;51.018;4.284;2022-12-18T07:18:06;-4.00;99.90
18998;DHT22;9632;51.018;4.284;2022-12-18T07:20:32;-4.00;99.90
18998;DHT22;9632;51.018;4.284;2022-12-18T07:22:57;-3.90;99.90
18998;DHT22;9632;51.018;4.284;2022-12-18T07:25:23;-3.90;99.90
18998;DHT22;9632;51.018;4.284;2022-12-18T07:27:48;-3.90;99.90
18998;DHT22;9632;51.018;4.284;2022-12-18T07:30:14;-3.90;99.90
18998;DHT22;9632;51.018;4.284;2022-12-18T07:32:40;-3.90;99.90
18998;DHT22;9632;51.018;4.284;2022-12-18T07:35:06;-3.90;99.90
18998;DHT22;9632;51.018;4.284;2022-12-18T07:37:31;-3.80;99.90
18998;DHT22;9632;51.018;4.284;2022-12-18T07:39:57;-3.80;99.90
18998;DHT22;9632;51.018;4.284;2022-12-18T07:42:22;-3.80;99.90
18998;DHT22;9632;51.018;4.284;2022-12-18T07:45:00;-3.80;99.90
18998;DHT22;9632;51.018;4.284;2022-12-18T07:47:27;-3.80;99.90
18998;DHT22;9632;51.018;4.284;2022-12-18T07:49:53;-3.70;99.90
18998;DHT22;9632;51.018;4.284;2022-12-18T07:52:19;-3.80;99.90
18998;DHT22;9632;51.018;4.284;2022-12-18T07:54:44;-3.70;99.90
18998;DHT22;9632;51.018;4.284;2022-12-18T07:57:10;-3.80;99.90
18998;DHT22;9632;51.018;4.284;2022-12-18T07:59:36;-3.70;99.90
18998;DHT22;9632;51.018;4.284;2022-12-18T08:02:02;-3.70;99.90
18998;DHT22;9632;51.018;4.284;2022-12-18T08:04:28;-3.70;99.90
18998;DHT22;9632;51.018;4.284;2022-12-18T08:06:54;-3.70;99.90
18998;DHT22;9632;51.018;4.284;2022-12-18T08:09:19;-3.70;99.90
18998;DHT22;9632;51.018;4.284;2022-12-18T08:11:45;-3.70;99.90
18998;DHT22;9632;51.018;4.284;2022-12-18T08:14:11;-3.70;99.90
18998;DHT22;9632;51.018;4.284;2022-12-18T08:16:37;-3.60;99.90
18998;DHT22;9632;51.018;4.284;2022-12-18T08:19:02;-3.70;99.90
18998;DHT22;9632;51.018;4.284;2022-12-18T08:21:30;-3.60;99.90
18998;DHT22;9632;51.018;4.284;2022-12-18T08:23:59;-3.60;99.90
18998;DHT22;9632;51.018;4.284;2022-12-18T08:26:27;-3.60;99.90
18998;DHT22;9632;51.018;4.284;2022-12-18T08:28:55;-3.60;99.90
18998;DHT22;9632;51.018;4.284;2022-12-18T08:31:21;-3.60;99.90
18998;DHT22;9632;51.018;4.284;2022-12-18T08:33:52;-3.50;99.90
18998;DHT22;9632;51.018;4.284;2022-12-18T08:36:18;-3.50;99.90
18998;DHT22;9632;51.018;4.284;2022-12-18T08:38:45;-3.40;99.90
18998;DHT22;9632;51.018;4.284;2022-12-18T08:41:13;-3.30;99.90
18998;DHT22;9632;51.018;4.284;2022-12-18T08:43:40;-3.30;99.90
18998;DHT22;9632;51.018;4.284;2022-12-18T08:46:26;-3.20;99.90
18998;DHT22;9632;51.018;4.284;2022-12-18T08:48:53;-3.20;99.90
18998;DHT22;9632;51.018;4.284;2022-12-18T08:51:20;-3.30;99.90
18998;DHT22;9632;51.018;4.284;2022-12-18T08:53:46;-3.20;99.90
18998;DHT22;9632;51.018;4.284;2022-12-18T08:56:13;-3.20;99.90
18998;DHT22;9632;51.018;4.284;2022-12-18T08:58:39;-3.20;99.90
18998;DHT22;9632;51.018;4.284;2022-12-18T09:01:07;-3.20;99.90
18998;DHT22;9632;51.018;4.284;2022-12-18T09:03:34;-3.10;99.90
18998;DHT22;9632;51.018;4.284;2022-12-18T09:06:00;-3.00;99.90
18998;DHT22;9632;51.018;4.284;2022-12-18T09:08:26;-3.00;99.90
18998;DHT22;9632;51.018;4.284;2022-12-18T09:10:52;-2.90;99.90
18998;DHT22;9632;51.018;4.284;2022-12-18T09:13:18;-2.90;99.90
18998;DHT22;9632;51.018;4.284;2022-12-18T09:15:51;-2.80;99.90
18998;DHT22;9632;51.018;4.284;2022-12-18T09:18:18;-2.80;99.90
18998;DHT22;9632;51.018;4.284;2022-12-18T09:20:44;-2.70;99.90
18998;DHT22;9632;51.018;4.284;2022-12-18T09:23:10;-2.70;99.90
18998;DHT22;9632;51.018;4.284;2022-12-18T09:25:37;-2.60;99.90
18998;DHT22;9632;51.018;4.284;2022-12-18T09:28:06;-2.50;99.90
18998;DHT22;9632;51.018;4.284;2022-12-18T09:30:32;-2.50;99.90
18998;DHT22;9632;51.018;4.284;2022-12-18T09:33:01;-2.50;99.90
18998;DHT22;9632;51.018;4.284;2022-12-18T09:35:26;-2.40;99.90
18998;DHT22;9632;51.018;4.284;2022-12-18T09:37:53;-2.40;99.90
18998;DHT22;9632;51.018;4.284;2022-12-18T09:40:25;-2.40;99.90
18998;DHT22;9632;51.018;4.284;2022-12-18T09:42:55;-2.30;99.90
18998;DHT22;9632;51.018;4.284;2022-12-18T09:45:23;-2.30;99.90
18998;DHT22;9632;51.018;4.284;2022-12-18T09:47:50;-2.20;99.90
18998;DHT22;9632;51.018;4.284;2022-12-18T09:50:48;-2.30;99.90
18998;DHT22;9632;51.018;4.284;2022-12-18T09:53:28;-2.20;99.90
18998;DHT22;9632;51.018;4.284;2022-12-18T09:55:56;-2.10;99.90
18998;DHT22;9632;51.018;4.284;2022-12-18T09:58:36;-2.10;99.90
18998;DHT22;9632;51.018;4.284;2022-12-18T10:01:29;-2.00;99.90
18998;DHT22;9632;51.018;4.284;2022-12-18T10:03:56;-1.80;99.90
18998;DHT22;9632;51.018;4.284;2022-12-18T10:06:44;-1.80;99.90
18998;DHT22;9632;51.018;4.284;2022-12-18T10:14:32;-1.60;99.90
18998;DHT22;9632;51.018;4.284;2022-12-18T10:19:54;-1.50;99.90
18998;DHT22;9632;51.018;4.284;2022-12-18T10:27:31;-1.40;99.90
18998;DHT22;9632;51.018;4.284;2022-12-18T10:29:57;-1.40;99.90
18998;DHT22;9632;51.018;4.284;2022-12-18T10:32:29;-1.40;99.90
18998;DHT22;9632;51.018;4.284;2022-12-18T10:34:57;-1.30;99.90
18998;DHT22;9632;51.018;4.284;2022-12-18T10:37:25;-1.20;99.90
18998;DHT22;9632;51.018;4.284;2022-12-18T10:40:13;-1.20;99.90
18998;DHT22;9632;51.018;4.284;2022-12-18T10:42:39;-1.10;99.90
18998;DHT22;9632;51.018;4.284;2022-12-18T10:45:16;-1.00;99.90
18998;DHT22;9632;51.018;4.284;2022-12-18T10:47:47;-1.00;99.90
18998;DHT22;9632;51.018;4.284;2022-12-18T10:50:28;-0.90;99.90
18998;DHT22;9632;51.018;4.284;2022-12-18T10:52:56;-0.90;99.90
18998;DHT22;9632;51.018;4.284;2022-12-18T10:55:22;-0.80;99.90
18998;DHT22;9632;51.018;4.284;2022-12-18T10:57:49;-0.70;99.90
18998;DHT22;9632;51.018;4.284;2022-12-18T11:00:23;-0.70;99.90
18998;DHT22;9632;51.018;4.284;2022-12-18T11:02:50;-0.60;99.90
18998;DHT22;9632;51.018;4.284;2022-12-18T11:05:28;-0.60;99.90
18998;DHT22;9632;51.018;4.284;2022-12-18T11:07:54;-0.50;99.90
18998;DHT22;9632;51.018;4.284;2022-12-18T11:10:26;-0.40;99.90
18998;DHT22;9632;51.018;4.284;2022-12-18T11:12:53;-0.40;99.90
18998;DHT22;9632;51.018;4.284;2022-12-18T11:15:26;-0.30;99.90
18998;DHT22;9632;51.018;4.284;2022-12-18T11:17:53;-0.30;99.90
18998;DHT22;9632;51.018;4.284;2022-12-18T11:22:56;-0.20;99.90
18998;DHT22;9632;51.018;4.284;2022-12-18T11:25:22;-0.20;99.90
18998;DHT22;9632;51.018;4.284;2022-12-18T11:28:00;-0.20;99.90
18998;DHT22;9632;51.018;4.284;2022-12-18T11:30:35;-0.30;99.90
18998;DHT22;9632;51.018;4.284;2022-12-18T11:33:14;-0.30;99.90
18998;DHT22;9632;51.018;4.284;2022-12-18T11:35:48;-0.30;99.90
18998;DHT22;9632;51.018;4.284;2022-12-18T11:38:26;-0.30;99.90
18998;DHT22;9632;51.018;4.284;2022-12-18T11:41:32;-0.20;99.90
18998;DHT22;9632;51.018;4.284;2022-12-18T11:44:23;-0.20;99.90
18998;DHT22;9632;51.018;4.284;2022-12-18T11:46:55;-0.10;99.90
18998;DHT22;9632;51.018;4.284;2022-12-18T11:49:27;-0.10;99.90
18998;DHT22;9632;51.018;4.284;2022-12-18T11:52:15;0.00;99.90
18998;DHT22;9632;51.018;4.284;2022-12-18T11:54:41;0.10;99.90
18998;DHT22;9632;51.018;4.284;2022-12-18T11:57:32;0.10;99.90
18998;DHT22;9632;51.018;4.284;2022-12-18T12:00:13;0.20;99.90
18998;DHT22;9632;51.018;4.284;2022-12-18T12:14:36;0.40;99.90
18998;DHT22;9632;51.018;4.284;2022-12-18T12:17:38;0.30;99.90
18998;DHT22;9632;51.018;4.284;2022-12-18T12:20:19;0.40;99.90
18998;DHT22;9632;51.018;4.284;2022-12-18T12:38:48;0.60;99.90
18998;DHT22;9632;51.018;4.284;2022-12-18T12:41:20;0.60;99.90
18998;DHT22;9632;51.018;4.284;2022-12-18T12:44:09;0.60;99.90
18998;DHT22;9632;51.018;4.284;2022-12-18T12:46:40;0.60;99.90
18998;DHT22;9632;51.018;4.284;2022-12-18T12:49:15;0.70;99.90
18998;DHT22;9632;51.018;4.284;2022-12-18T12:51:45;0.70;99.90
18998;DHT22;9632;51.018;4.284;2022-12-18T12:54:31;0.80;99.90
18998;DHT22;9632;51.018;4.284;2022-12-18T12:57:21;0.70;99.90
18998;DHT22;9632;51.018;4.284;2022-12-18T13:02:58;0.80;99.90
18998;DHT22;9632;51.018;4.284;2022-12-18T13:08:31;0.90;99.90
18998;DHT22;9632;51.018;4.284;2022-12-18T13:10:59;1.00;99.90
18998;DHT22;9632;51.018;4.284;2022-12-18T13:13:55;1.00;99.90
18998;DHT22;9632;51.018;4.284;2022-12-18T13:16:23;1.00;99.90
18998;DHT22;9632;51.018;4.284;2022-12-18T13:18:54;1.10;99.90
18998;DHT22;9632;51.018;4.284;2022-12-18T13:23:53;1.20;99.90
18998;DHT22;9632;51.018;4.284;2022-12-18T13:31:15;1.30;99.90
18998;DHT22;9632;51.018;4.284;2022-12-18T13:34:16;1.20;99.90
18998;DHT22;9632;51.018;4.284;2022-12-18T13:36:42;1.20;99.90
18998;DHT22;9632;51.018;4.284;2022-12-18T13:41:40;1.30;99.90
18998;DHT22;9632;51.018;4.284;2022-12-18T13:46:45;1.40;99.90
18998;DHT22;9632;51.018;4.284;2022-12-18T13:51:48;1.50;99.90
18998;DHT22;9632;51.018;4.284;2022-12-18T13:56:46;1.50;99.90
18998;DHT22;9632;51.018;4.284;2022-12-18T13:59:24;1.50;99.90
18998;DHT22;9632;51.018;4.284;2022-12-18T14:01:58;1.50;99.90
18998;DHT22;9632;51.018;4.284;2022-12-18T14:04:26;1.50;99.90
18998;DHT22;9632;51.018;4.284;2022-12-18T14:06:56;1.60;99.90
18998;DHT22;9632;51.018;4.284;2022-12-18T14:09:46;1.60;99.90
18998;DHT22;9632;51.018;4.284;2022-12-18T14:12:29;1.70;99.90
18998;DHT22;9632;51.018;4.284;2022-12-18T14:15:30;1.80;99.90
18998;DHT22;9632;51.018;4.284;2022-12-18T14:18:01;1.80;99.90
18998;DHT22;9632;51.018;4.284;2022-12-18T14:20:30;1.90;99.90
18998;DHT22;9632;51.018;4.284;2022-12-18T14:22:57;1.90;99.90
18998;DHT22;9632;51.018;4.284;2022-12-18T14:25:27;1.90;99.90
18998;DHT22;9632;51.018;4.284;2022-12-18T14:30:39;2.00;99.90
18998;DHT22;9632;51.018;4.284;2022-12-18T14:35:36;2.00;99.90
18998;DHT22;9632;51.018;4.284;2022-12-18T14:38:33;2.00;99.90
18998;DHT22;9632;51.018;4.284;2022-12-18T14:41:04;2.10;99.90
18998;DHT22;9632;51.018;4.284;2022-12-18T14:43:34;2.00;99.90
18998;DHT22;9632;51.018;4.284;2022-12-18T14:46:01;2.00;99.90
18998;DHT22;9632;51.018;4.284;2022-12-18T14:48:40;2.00;99.90
18998;DHT22;9632;51.018;4.284;2022-12-18T14:51:16;2.00;99.90
18998;DHT22;9632;51.018;4.284;2022-12-18T14:53:45;2.00;99.90
18998;DHT22;9632;51.018;4.284;2022-12-18T14:56:19;2.00;99.90
18998;DHT22;9632;51.018;4.284;2022-12-18T14:58:59;2.00;99.90
18998;DHT22;9632;51.018;4.284;2022-12-18T15:01:31;2.10;99.90
18998;DHT22;9632;51.018;4.284;2022-12-18T15:03:59;2.10;99.90
18998;DHT22;9632;51.018;4.284;2022-12-18T15:06:31;2.10;99.90
18998;DHT22;9632;51.018;4.284;2022-12-18T15:08:58;2.10;99.90
18998;DHT22;9632;51.018;4.284;2022-12-18T15:11:45;2.10;99.90
18998;DHT22;9632;51.018;4.284;2022-12-18T15:14:31;2.20;99.90
18998;DHT22;9632;51.018;4.284;2022-12-18T15:16:58;2.20;99.90
18998;DHT22;9632;51.018;4.284;2022-12-18T15:21:59;2.20;99.90
18998;DHT22;9632;51.018;4.284;2022-12-18T15:24:29;2.20;99.90
18998;DHT22;9632;51.018;4.284;2022-12-18T15:26:56;2.20;99.90
18998;DHT22;9632;51.018;4.284;2022-12-18T15:29:22;2.20;99.90
18998;DHT22;9632;51.018;4.284;2022-12-18T15:32:02;2.30;99.90
18998;DHT22;9632;51.018;4.284;2022-12-18T15:34:28;2.30;99.90
18998;DHT22;9632;51.018;4.284;2022-12-18T15:36:54;2.30;99.90
18998;DHT22;9632;51.018;4.284;2022-12-18T15:39:20;2.20;99.90
18998;DHT22;9632;51.018;4.284;2022-12-18T15:41:46;2.20;99.90
18998;DHT22;9632;51.018;4.284;2022-12-18T15:44:30;2.20;99.90
18998;DHT22;9632;51.018;4.284;2022-12-18T15:46:56;2.30;99.90
18998;DHT22;9632;51.018;4.284;2022-12-18T15:49:22;2.30;99.90
18998;DHT22;9632;51.018;4.284;2022-12-18T15:51:58;2.30;99.90
18998;DHT22;9632;51.018;4.284;2022-12-18T15:54:25;2.30;99.90
18998;DHT22;9632;51.018;4.284;2022-12-18T15:57:12;2.30;99.90
18998;DHT22;9632;51.018;4.284;2022-12-18T15:59:51;2.30;99.90
18998;DHT22;9632;51.018;4.284;2022-12-18T16:02:19;2.40;99.90
18998;DHT22;9632;51.018;4.284;2022-12-18T16:04:45;2.40;99.90
18998;DHT22;9632;51.018;4.284;2022-12-18T16:07:12;2.40;99.90
18998;DHT22;9632;51.018;4.284;2022-12-18T16:09:37;2.40;99.90
18998;DHT22;9632;51.018;4.284;2022-12-18T16:12:05;2.40;99.90
18998;DHT22;9632;51.018;4.284;2022-12-18T16:14:32;2.50;99.90
18998;DHT22;9632;51.018;4.284;2022-12-18T16:16:59;2.50;99.90
18998;DHT22;9632;51.018;4.284;2022-12-18T16:19:25;2.50;99.90
18998;DHT22;9632;51.018;4.284;2022-12-18T16:21:53;2.60;99.90
18998;DHT22;9632;51.018;4.284;2022-12-18T16:24:25;2.50;99.90
18998;DHT22;9632;51.018;4.284;2022-12-18T16:26:52;2.50;99.90
18998;DHT22;9632;51.018;4.284;2022-12-18T16:29:18;2.50;99.90
18998;DHT22;9632;51.018;4.284;2022-12-18T16:31:44;2.50;99.90
18998;DHT22;9632;51.018;4.284;2022-12-18T16:34:21;2.50;99.90
18998;DHT22;9632;51.018;4.284;2022-12-18T16:36:51;2.50;99.90
18998;DHT22;9632;51.018;4.284;2022-12-18T16:39:17;2.50;99.90
18998;DHT22;9632;51.018;4.284;2022-12-18T16:41:43;2.50;99.90
18998;DHT22;9632;51.018;4.284;2022-12-18T16:44:09;2.60;99.90
18998;DHT22;9632;51.018;4.284;2022-12-18T16:46:36;2.60;99.90
18998;DHT22;9632;51.018;4.284;2022-12-18T16:49:02;2.60;99.90
18998;DHT22;9632;51.018;4.284;2022-12-18T16:51:28;2.60;99.90
18998;DHT22;9632;51.018;4.284;2022-12-18T16:53:54;2.60;99.90
18998;DHT22;9632;51.018;4.284;2022-12-18T16:56:20;2.60;99.90
18998;DHT22;9632;51.018;4.284;2022-12-18T16:58:54;2.60;99.90
18998;DHT22;9632;51.018;4.284;2022-12-18T17:01:20;2.70;99.90
18998;DHT22;9632;51.018;4.284;2022-12-18T17:03:54;2.70;99.90
18998;DHT22;9632;51.018;4.284;2022-12-18T17:06:24;2.70;99.90
18998;DHT22;9632;51.018;4.284;2022-12-18T17:09:03;2.70;99.90
18998;DHT22;9632;51.018;4.284;2022-12-18T17:11:32;2.70;99.90
18998;DHT22;9632;51.018;4.284;2022-12-18T17:13:58;2.80;99.90
18998;DHT22;9632;51.018;4.284;2022-12-18T17:16:24;2.80;99.90
18998;DHT22;9632;51.018;4.284;2022-12-18T17:18:52;2.90;99.90
18998;DHT22;9632;51.018;4.284;2022-12-18T17:21:18;2.90;99.90
18998;DHT22;9632;51.018;4.284;2022-12-18T17:23:44;2.90;99.90
18998;DHT22;9632;51.018;4.284;2022-12-18T17:26:11;2.90;99.90
18998;DHT22;9632;51.018;4.284;2022-12-18T17:28:38;2.90;99.90
18998;DHT22;9632;51.018;4.284;2022-12-18T17:31:12;2.90;99.90
18998;DHT22;9632;51.018;4.284;2022-12-18T17:33:38;2.90;99.90
18998;DHT22;9632;51.018;4.284;2022-12-18T17:36:04;2.90;99.90
18998;DHT22;9632;51.018;4.284;2022-12-18T17:38:29;2.90;99.90
18998;DHT22;9632;51.018;4.284;2022-12-18T17:41:00;2.90;99.90
18998;DHT22;9632;51.018;4.284;2022-12-18T17:43:26;2.90;99.90
18998;DHT22;9632;51.018;4.284;2022-12-18T17:45:51;3.00;99.90